createdAt,value
2018-11-06T00:00:31.553Z,5.10
2018-11-06T00:04:08.523Z,4.53
2018-11-06T00:06:37.818Z,6.53
2018-11-06T00:09:08.575Z,5.00
2018-11-06T00:11:38.172Z,8.00
2018-11-06T00:14:07.441Z,3.73
2018-11-06T00:16:36.813Z,4.50
2018-11-06T00:19:06.378Z,4.23
2018-11-06T00:21:35.701Z,3.33
2018-11-06T00:24:05.076Z,3.23
2018-11-06T00:26:34.363Z,5.40
2018-11-06T00:29:03.776Z,4.70
2018-11-06T00:31:33.173Z,3.90
2018-11-06T00:34:02.597Z,4.50
2018-11-06T00:36:32.000Z,3.57
2018-11-06T00:39:01.240Z,4.30
2018-11-06T00:41:30.633Z,5.30
2018-11-06T00:43:59.970Z,4.17
2018-11-06T00:46:29.365Z,3.60
2018-11-06T00:48:58.702Z,3.57
2018-11-06T00:51:28.005Z,6.57
2018-11-06T00:53:57.439Z,6.73
2018-11-06T00:56:27.160Z,3.90
2018-11-06T00:58:56.638Z,3.83
2018-11-06T01:01:26.031Z,6.57
2018-11-06T01:04:00.288Z,3.50
2018-11-06T01:06:31.115Z,4.00
2018-11-06T01:09:00.572Z,4.37
2018-11-06T01:11:30.185Z,4.20
2018-11-06T01:13:59.951Z,5.50
2018-11-06T01:16:29.638Z,5.17
2018-11-06T01:18:59.420Z,3.60
2018-11-06T01:21:28.739Z,5.03
2018-11-06T01:23:58.453Z,3.50
2018-11-06T01:26:28.114Z,5.90
2018-11-06T01:28:57.666Z,5.07
2018-11-06T01:31:28.007Z,4.40
2018-11-06T01:33:57.495Z,3.40
2018-11-06T01:36:27.156Z,5.10
2018-11-06T01:38:56.441Z,3.47
2018-11-06T01:41:25.920Z,3.13
2018-11-06T01:43:55.261Z,5.83
2018-11-06T01:46:24.787Z,3.70
2018-11-06T01:48:54.280Z,4.00
2018-11-06T01:51:23.711Z,4.70
2018-11-06T01:53:53.049Z,3.90
2018-11-06T01:56:22.510Z,6.07
2018-11-06T01:58:52.611Z,5.43
2018-11-06T02:01:22.027Z,4.47
2018-11-06T02:03:51.385Z,6.30
2018-11-06T02:06:20.960Z,3.53
2018-11-06T02:08:50.386Z,4.83
2018-11-06T02:11:19.632Z,3.50
2018-11-06T02:13:48.918Z,3.97
2018-11-06T02:16:18.436Z,4.20
2018-11-06T02:18:47.888Z,9.63
2018-11-06T02:21:17.404Z,4.40
2018-11-06T02:23:46.740Z,3.47
2018-11-06T02:26:16.538Z,4.70
2018-11-06T02:28:45.754Z,3.20
2018-11-06T02:31:15.218Z,3.70
2018-11-06T02:33:44.959Z,4.03
2018-11-06T02:36:14.415Z,3.27
2018-11-06T02:38:43.821Z,4.07
2018-11-06T02:41:13.445Z,3.87
2018-11-06T02:43:42.680Z,3.47
2018-11-06T02:46:12.360Z,4.90
2018-11-06T02:48:41.792Z,3.50
2018-11-06T02:51:11.459Z,3.70
2018-11-06T02:53:41.895Z,3.00
2018-11-06T02:56:12.191Z,5.20
2018-11-06T02:58:41.558Z,3.13
2018-11-06T03:01:11.370Z,3.87
2018-11-06T03:03:41.976Z,4.87
2018-11-06T03:06:12.935Z,3.70
2018-11-06T03:08:42.723Z,2.60
2018-11-06T03:11:11.950Z,3.93
2018-11-06T03:13:41.489Z,6.00
2018-11-06T03:16:10.994Z,2.83
2018-11-06T03:18:40.317Z,5.03
2018-11-06T03:21:09.687Z,3.37
2018-11-06T03:23:38.900Z,3.87
2018-11-06T03:26:08.382Z,3.50
2018-11-06T03:28:37.752Z,3.50
2018-11-06T03:31:07.097Z,3.87
2018-11-06T03:33:36.378Z,7.30
2018-11-06T03:36:06.014Z,4.97
2018-11-06T03:38:35.462Z,3.17
2018-11-06T03:41:04.747Z,3.30
2018-11-06T03:43:34.260Z,3.10
2018-11-06T03:46:03.587Z,3.60
2018-11-06T03:48:32.894Z,3.30
2018-11-06T03:51:02.843Z,3.40
2018-11-06T03:53:32.206Z,5.00
2018-11-06T03:56:01.591Z,4.17
2018-11-06T03:58:30.889Z,3.00
2018-11-06T04:01:00.188Z,2.97
2018-11-06T04:03:29.456Z,5.80
2018-11-06T04:05:58.860Z,3.27
2018-11-06T04:08:28.283Z,3.60
2018-11-06T04:10:57.625Z,5.33
2018-11-06T04:13:27.054Z,3.10
2018-11-06T04:15:56.463Z,2.67
2018-11-06T04:18:25.880Z,3.20
2018-11-06T04:20:55.223Z,3.23
2018-11-06T04:23:24.497Z,3.53
2018-11-06T04:25:53.947Z,4.43
2018-11-06T04:28:23.319Z,3.47
2018-11-06T04:30:52.622Z,3.20
2018-11-06T04:33:22.005Z,2.80
2018-11-06T04:35:51.463Z,3.23
2018-11-06T04:38:20.970Z,2.97
2018-11-06T04:40:51.024Z,7.27
2018-11-06T04:43:20.368Z,6.27
2018-11-06T04:45:49.734Z,3.13
2018-11-06T04:48:18.932Z,3.87
2018-11-06T04:50:48.668Z,2.13
2018-11-06T04:53:18.496Z,4.47
2018-11-06T04:55:47.839Z,3.87
2018-11-06T04:58:17.674Z,3.33
2018-11-06T05:00:47.939Z,2.60
2018-11-06T05:03:17.293Z,4.37
2018-11-06T05:05:46.805Z,3.80
2018-11-06T05:08:16.205Z,2.67
2018-11-06T05:10:45.761Z,4.23
2018-11-06T05:13:15.047Z,4.33
2018-11-06T05:15:44.642Z,4.17
2018-11-06T05:18:14.350Z,3.53
2018-11-06T05:20:43.699Z,4.17
2018-11-06T05:23:13.040Z,4.87
2018-11-06T05:25:42.409Z,4.07
2018-11-06T05:28:11.974Z,5.13
2018-11-06T05:30:41.440Z,4.80
2018-11-06T05:33:10.700Z,4.43
2018-11-06T05:35:40.059Z,5.03
2018-11-06T05:38:09.553Z,4.70
2018-11-06T05:40:49.641Z,3.63
2018-11-06T05:43:19.451Z,7.53
2018-11-06T05:45:48.805Z,3.30
2018-11-06T05:48:18.083Z,3.17
2018-11-06T05:50:47.761Z,4.57
2018-11-06T05:53:17.348Z,4.03
2018-11-06T05:55:46.764Z,3.20
2018-11-06T05:58:16.058Z,4.73
2018-11-06T06:00:45.251Z,4.43
2018-11-06T06:03:14.589Z,3.23
2018-11-06T06:05:45.236Z,4.73
2018-11-06T06:08:14.613Z,5.20
2018-11-06T06:10:43.911Z,4.67
2018-11-06T06:13:13.310Z,2.77
2018-11-06T06:15:42.647Z,8.30
2018-11-06T06:18:12.055Z,6.00
2018-11-06T06:20:41.447Z,4.00
2018-11-06T06:23:10.837Z,10.30
2018-11-06T06:25:40.121Z,3.43
2018-11-06T06:28:09.652Z,3.40
2018-11-06T06:30:39.070Z,4.47
2018-11-06T06:33:08.606Z,6.63
2018-11-06T06:35:38.162Z,12.07
2018-11-06T06:38:07.533Z,6.23
2018-11-06T06:40:36.938Z,9.50
2018-11-06T06:43:06.586Z,6.47
2018-11-06T06:45:36.850Z,8.23
2018-11-06T06:48:06.255Z,8.50
2018-11-06T06:50:35.753Z,4.60
2018-11-06T06:53:05.052Z,7.70
2018-11-06T06:55:34.490Z,5.67
2018-11-06T06:58:04.103Z,12.83
2018-11-06T07:00:33.492Z,6.37
2018-11-06T07:03:02.976Z,16.87
2018-11-06T07:05:32.204Z,3.47
2018-11-06T07:08:01.601Z,10.10
2018-11-06T07:10:31.019Z,7.90
2018-11-06T07:13:01.054Z,5.27
2018-11-06T07:15:30.290Z,4.20
2018-11-06T07:17:59.798Z,4.60
2018-11-06T07:20:29.054Z,6.13
2018-11-06T07:22:58.439Z,5.90
2018-11-06T07:25:28.147Z,6.80
2018-11-06T07:27:58.279Z,3.50
2018-11-06T07:30:27.770Z,7.90
2018-11-06T07:32:57.154Z,4.30
2018-11-06T07:35:26.563Z,5.20
2018-11-06T07:37:55.823Z,12.43
2018-11-06T07:40:25.276Z,5.47
2018-11-06T07:42:54.643Z,5.30
2018-11-06T07:45:23.973Z,5.57
2018-11-06T07:47:53.349Z,4.30
2018-11-06T07:50:22.753Z,3.80
2018-11-06T07:52:52.168Z,4.20
2018-11-06T07:55:21.613Z,3.30
2018-11-06T07:57:51.596Z,6.40
2018-11-06T08:00:23.272Z,4.93
2018-11-06T08:02:52.643Z,7.87
2018-11-06T08:05:22.164Z,3.50
2018-11-06T08:07:52.066Z,3.57
2018-11-06T08:10:21.492Z,5.57
2018-11-06T08:12:52.064Z,2.70
2018-11-06T08:15:21.586Z,8.60
2018-11-06T08:17:51.158Z,3.30
2018-11-06T08:20:20.711Z,3.67
2018-11-06T08:22:50.031Z,3.83
2018-11-06T08:25:19.608Z,8.43
2018-11-06T08:27:51.249Z,2.17
2018-11-06T08:30:21.012Z,3.17
2018-11-06T08:33:12.411Z,4.37
2018-11-06T08:35:41.716Z,2.20
2018-11-06T08:38:11.060Z,8.93
2018-11-06T08:40:40.457Z,6.10
2018-11-06T08:43:10.302Z,4.50
2018-11-06T08:45:39.677Z,4.57
2018-11-06T08:48:08.964Z,2.83
2018-11-06T08:50:38.388Z,6.20
2018-11-06T08:53:07.751Z,7.30
2018-11-06T08:55:37.074Z,4.20
2018-11-06T08:58:06.374Z,4.17
2018-11-06T09:00:35.775Z,5.40
2018-11-06T09:03:05.415Z,3.63
2018-11-06T09:05:35.511Z,3.00
2018-11-06T09:08:04.936Z,1.70
2018-11-06T09:10:34.330Z,3.37
2018-11-06T09:13:03.682Z,1.50
2018-11-06T09:15:33.809Z,2.07
2018-11-06T09:18:03.157Z,2.30
2018-11-06T09:20:32.543Z,3.93
2018-11-06T09:23:04.033Z,2.77
2018-11-06T09:25:33.633Z,3.13
2018-11-06T09:28:03.007Z,1.90
2018-11-06T09:30:32.311Z,3.70
2018-11-06T09:33:01.607Z,2.90
2018-11-06T09:35:31.067Z,1.57
2018-11-06T09:38:00.348Z,3.83
2018-11-06T09:42:58.897Z,4.50
2018-11-06T09:45:28.322Z,4.40
2018-11-06T09:47:57.772Z,4.63
2018-11-06T09:50:27.186Z,5.23
2018-11-06T09:52:56.535Z,3.23
2018-11-06T09:55:25.831Z,3.23
2018-11-06T09:57:55.280Z,2.27
2018-11-06T10:00:24.745Z,3.60
2018-11-06T10:02:54.031Z,2.03
2018-11-06T10:05:23.355Z,4.93
2018-11-06T10:07:52.739Z,5.13
2018-11-06T10:10:22.144Z,4.80
2018-11-06T10:12:51.551Z,1.73
2018-11-06T10:15:21.663Z,4.10
2018-11-06T10:17:51.841Z,10.90
2018-11-06T10:20:21.844Z,2.30
2018-11-06T10:22:51.220Z,12.70
2018-11-06T10:25:20.759Z,3.73
2018-11-06T10:27:50.176Z,2.73
2018-11-06T10:30:20.489Z,5.30
2018-11-06T10:32:49.867Z,1.73
2018-11-06T10:35:19.532Z,2.43
2018-11-06T10:37:48.891Z,3.70
2018-11-06T10:40:20.511Z,2.87
2018-11-06T10:42:50.151Z,6.10
2018-11-06T10:45:20.442Z,2.20
2018-11-06T10:47:50.210Z,2.13
2018-11-06T10:50:19.750Z,2.33
2018-11-06T10:52:50.099Z,2.20
2018-11-06T10:55:19.757Z,2.30
2018-11-06T10:57:49.065Z,1.50
2018-11-06T11:00:23.555Z,1.57
2018-11-06T11:02:58.013Z,1.73
2018-11-06T11:05:28.979Z,1.53
2018-11-06T11:07:58.398Z,1.37
2018-11-06T11:10:27.902Z,1.57
2018-11-06T11:12:57.391Z,2.43
2018-11-06T11:15:26.791Z,1.53
2018-11-06T11:17:56.204Z,1.07
2018-11-06T11:20:25.512Z,4.30
2018-11-06T11:22:54.916Z,4.23
2018-11-06T11:25:24.405Z,3.33
2018-11-06T11:27:53.744Z,2.53
2018-11-06T11:30:23.093Z,8.87
2018-11-06T11:32:52.429Z,2.37
2018-11-06T11:35:22.004Z,2.40
2018-11-06T11:37:51.507Z,1.27
2018-11-06T11:40:21.220Z,5.17
2018-11-06T11:42:50.820Z,1.83
2018-11-06T11:45:20.841Z,6.87
2018-11-06T11:47:50.150Z,1.30
2018-11-06T11:50:19.872Z,2.83
2018-11-06T11:52:49.281Z,1.20
2018-11-06T11:55:19.374Z,5.60
2018-11-06T11:57:48.765Z,3.27
2018-11-06T12:00:20.083Z,2.30
2018-11-06T12:02:49.600Z,4.63
2018-11-06T12:05:19.220Z,5.37
2018-11-06T12:07:48.559Z,5.97
2018-11-06T12:10:18.665Z,2.40
2018-11-06T12:12:48.080Z,7.70
2018-11-06T12:15:18.408Z,6.20
2018-11-06T12:17:48.124Z,4.83
2018-11-06T12:20:18.015Z,1.40
2018-11-06T12:22:47.467Z,1.77
2018-11-06T12:27:53.295Z,1.47
2018-11-06T12:30:22.903Z,8.60
2018-11-06T12:32:52.291Z,4.73
2018-11-06T12:35:21.735Z,5.57
2018-11-06T12:37:51.185Z,3.67
2018-11-06T12:40:20.595Z,3.73
2018-11-06T12:42:49.915Z,2.17
2018-11-06T12:45:19.642Z,6.90
2018-11-06T12:47:49.019Z,1.83
2018-11-06T12:50:18.411Z,5.87
2018-11-06T12:52:47.780Z,2.60
2018-11-06T12:55:18.165Z,2.10
2018-11-06T12:57:47.456Z,2.50
2018-11-06T13:00:18.902Z,1.40
2018-11-06T13:02:48.226Z,4.43
2018-11-06T13:05:17.723Z,2.97
2018-11-06T13:07:47.484Z,1.53
2018-11-06T13:10:17.822Z,0.80
2018-11-06T13:12:47.623Z,1.37
2018-11-06T13:15:17.870Z,2.03
2018-11-06T13:17:46.787Z,3.20
2018-11-06T13:20:17.150Z,4.23
2018-11-06T13:22:46.503Z,3.47
2018-11-06T13:25:16.026Z,1.30
2018-11-06T13:27:45.557Z,3.07
2018-11-06T13:30:16.088Z,1.33
2018-11-06T13:32:46.432Z,4.47
2018-11-06T13:35:15.913Z,2.83
2018-11-06T13:37:45.451Z,3.23
2018-11-06T13:40:15.971Z,1.20
2018-11-06T13:42:45.924Z,3.00
2018-11-06T13:45:18.276Z,2.50
2018-11-06T13:47:47.475Z,1.67
2018-11-06T13:50:16.779Z,3.03
2018-11-06T13:52:46.166Z,1.93
2018-11-06T13:55:16.349Z,2.90
2018-11-06T13:57:46.558Z,1.10
2018-11-06T14:00:18.795Z,2.00
2018-11-06T14:02:48.125Z,1.50
2018-11-06T14:05:17.652Z,3.20
2018-11-06T14:07:47.070Z,2.90
2018-11-06T14:10:16.346Z,1.20
2018-11-06T14:12:46.009Z,1.20
2018-11-06T14:15:15.493Z,0.73
2018-11-06T14:17:44.891Z,2.30
2018-11-06T14:20:15.472Z,4.93
2018-11-06T14:22:45.394Z,1.37
2018-11-06T14:25:14.791Z,2.00
2018-11-06T14:27:44.190Z,2.40
2018-11-06T14:30:15.732Z,1.67
2018-11-06T14:32:45.355Z,2.70
2018-11-06T14:35:15.909Z,5.23
2018-11-06T14:37:45.924Z,4.40
2018-11-06T14:40:15.860Z,3.43
2018-11-06T14:42:45.749Z,2.13
2018-11-06T14:45:17.774Z,3.80
2018-11-06T14:47:47.237Z,1.43
2018-11-06T14:50:16.600Z,2.13
2018-11-06T14:52:46.013Z,1.37
2018-11-06T14:55:16.328Z,2.43
2018-11-06T14:57:45.757Z,2.37
2018-11-06T15:00:19.452Z,1.50
2018-11-06T15:02:50.318Z,5.80
2018-11-06T15:05:20.595Z,2.10
2018-11-06T15:07:49.975Z,2.83
2018-11-06T15:10:19.600Z,2.33
2018-11-06T15:12:49.101Z,2.63
2018-11-06T15:15:18.717Z,2.17
2018-11-06T15:17:48.682Z,3.70
2018-11-06T15:20:22.274Z,3.60
2018-11-06T15:22:51.534Z,2.57
2018-11-06T15:25:20.816Z,3.87
2018-11-06T15:27:50.178Z,4.10
2018-11-06T15:30:19.915Z,1.73
2018-11-06T15:32:49.276Z,3.20
2018-11-06T15:35:20.182Z,4.43
2018-11-06T15:37:49.550Z,3.10
2018-11-06T15:40:20.227Z,2.93
2018-11-06T15:42:49.600Z,4.87
2018-11-06T15:45:21.127Z,5.63
2018-11-06T15:47:50.668Z,2.70
2018-11-06T15:50:20.922Z,23.73
2018-11-06T15:52:51.552Z,8.17
2018-11-06T15:55:21.172Z,3.80
2018-11-06T15:57:50.724Z,2.37
2018-11-06T16:00:21.825Z,5.90
2018-11-06T16:02:51.491Z,6.37
2018-11-06T16:05:20.995Z,3.57
2018-11-06T16:07:50.862Z,5.60
2018-11-06T16:10:21.912Z,5.83
2018-11-06T16:12:51.779Z,6.23
2018-11-06T16:15:21.224Z,6.67
2018-11-06T16:17:50.685Z,9.10
2018-11-06T16:20:21.132Z,3.57
2018-11-06T16:22:50.528Z,4.07
2018-11-06T16:25:20.595Z,6.43
2018-11-06T16:27:50.098Z,5.53
2018-11-06T16:30:21.892Z,5.83
2018-11-06T16:32:51.489Z,4.10
2018-11-06T16:35:22.187Z,8.90
2018-11-06T16:37:51.660Z,6.30
2018-11-06T16:40:20.990Z,4.10
2018-11-06T16:42:50.467Z,3.93
2018-11-06T16:45:21.579Z,6.77
2018-11-06T16:47:51.706Z,12.40
2018-11-06T16:50:21.223Z,14.33
2018-11-06T16:52:50.698Z,80.70
2018-11-06T16:55:21.678Z,94.77
2018-11-06T16:57:51.047Z,23.23
2018-11-06T17:00:24.075Z,13.10
2018-11-06T17:02:53.364Z,6.43
2018-11-06T17:05:22.786Z,5.70
2018-11-06T17:07:52.333Z,17.23
2018-11-06T17:10:21.853Z,8.63
2018-11-06T17:12:51.176Z,9.07
2018-11-06T17:15:21.864Z,5.80
2018-11-06T17:17:52.475Z,2.80
2018-11-06T17:20:22.579Z,7.33
2018-11-06T17:22:51.919Z,5.77
2018-11-06T17:25:22.452Z,5.97
2018-11-06T17:27:51.902Z,6.70
2018-11-06T17:30:21.357Z,9.57
2018-11-06T17:32:50.741Z,3.73
2018-11-06T17:35:20.831Z,8.90
2018-11-06T17:37:50.345Z,6.17
2018-11-06T17:40:20.908Z,5.80
2018-11-06T17:42:50.318Z,8.33
2018-11-06T17:45:21.798Z,6.70
2018-11-06T17:47:51.280Z,6.60
2018-11-06T17:50:20.734Z,2.37
2018-11-06T17:52:50.074Z,4.93
2018-11-06T17:55:21.494Z,7.40
2018-11-06T17:57:50.867Z,8.60
2018-11-06T18:00:22.185Z,6.57
2018-11-06T18:02:51.465Z,10.43
2018-11-06T18:05:22.446Z,5.23
2018-11-06T18:07:51.603Z,6.03
2018-11-06T18:10:21.564Z,5.83
2018-11-06T18:12:50.922Z,5.10
2018-11-06T18:15:20.548Z,7.60
2018-11-06T18:17:49.957Z,4.97
2018-11-06T18:20:19.303Z,5.40
2018-11-06T18:22:48.580Z,10.23
2018-11-06T18:25:18.189Z,7.23
2018-11-06T18:27:47.446Z,4.90
2018-11-06T18:30:18.946Z,12.37
2018-11-06T18:32:48.339Z,8.43
2018-11-06T18:35:18.353Z,12.83
2018-11-06T18:37:47.681Z,11.87
2018-11-06T18:40:19.504Z,11.90
2018-11-06T18:42:49.720Z,9.10
2018-11-06T18:45:20.424Z,10.33
2018-11-06T18:47:49.831Z,11.20
2018-11-06T18:50:19.999Z,12.43
2018-11-06T18:52:50.567Z,8.80
2018-11-06T18:55:20.110Z,16.43
2018-11-06T18:57:49.619Z,12.13
2018-11-06T19:00:21.327Z,8.70
2018-11-06T19:02:52.384Z,11.70
2018-11-06T19:05:22.878Z,9.53
2018-11-06T19:07:52.557Z,7.90
2018-11-06T19:10:22.558Z,11.17
2018-11-06T19:12:52.440Z,8.60
2018-11-06T19:15:23.329Z,10.30
2018-11-06T19:17:53.035Z,9.53
2018-11-06T19:20:23.184Z,7.97
2018-11-06T19:22:52.951Z,13.80
2018-11-06T19:25:23.062Z,5.93
2018-11-06T19:27:54.616Z,9.63
2018-11-06T19:30:24.209Z,4.73
2018-11-06T19:32:54.113Z,7.43
2018-11-06T19:35:24.475Z,4.70
2018-11-06T19:37:55.261Z,4.90
2018-11-06T19:40:25.055Z,6.60
2018-11-06T19:42:55.451Z,6.70
2018-11-06T19:45:25.188Z,5.20
2018-11-06T19:47:54.752Z,9.17
2018-11-06T19:50:24.645Z,9.20
2018-11-06T19:52:54.748Z,7.40
2018-11-06T19:55:24.588Z,3.57
2018-11-06T19:57:54.533Z,4.43
2018-11-06T20:00:24.572Z,3.80
2018-11-06T20:02:55.246Z,3.70
2018-11-06T20:05:25.053Z,8.33
2018-11-06T20:07:54.846Z,4.70
2018-11-06T20:10:25.499Z,4.10
2018-11-06T20:12:55.842Z,4.37
2018-11-06T20:15:25.752Z,8.40
2018-11-06T20:17:55.414Z,5.43
2018-11-06T20:20:26.674Z,4.10
2018-11-06T20:22:56.441Z,6.60
2018-11-06T20:25:26.133Z,6.33
2018-11-06T20:27:55.789Z,6.93
2018-11-06T20:30:26.873Z,6.20
2018-11-06T20:32:56.772Z,6.00
2018-11-06T20:35:26.421Z,7.43
2018-11-06T20:37:56.535Z,5.93
2018-11-06T20:40:27.034Z,4.60
2018-11-06T20:42:57.147Z,3.93
2018-11-06T20:45:26.868Z,8.70
2018-11-06T20:47:56.621Z,7.63
2018-11-06T20:50:27.579Z,5.30
2018-11-06T20:52:57.512Z,4.90
2018-11-06T20:55:27.149Z,5.70
2018-11-06T20:57:57.007Z,5.27
2018-11-06T21:00:29.135Z,5.80
2018-11-06T21:02:59.895Z,6.40
2018-11-06T21:05:29.355Z,7.90
2018-11-06T21:07:59.650Z,7.33
2018-11-06T21:10:31.134Z,6.13
2018-11-06T21:13:00.499Z,7.10
2018-11-06T21:15:30.009Z,8.33
2018-11-06T21:17:59.487Z,6.60
2018-11-06T21:20:28.860Z,6.90
2018-11-06T21:22:58.227Z,7.80
2018-11-06T21:25:27.824Z,5.73
2018-11-06T21:27:57.089Z,8.57
2018-11-06T21:30:26.489Z,8.23
2018-11-06T21:32:55.868Z,8.73
2018-11-06T21:35:25.676Z,9.73
2018-11-06T21:37:55.121Z,10.33
2018-11-06T21:40:25.548Z,8.37
2018-11-06T21:42:55.813Z,9.53
2018-11-06T21:45:25.995Z,8.97
2018-11-06T21:47:55.724Z,10.03
2018-11-06T21:50:25.891Z,8.30
2018-11-06T21:52:55.899Z,13.13
2018-11-06T21:55:25.631Z,9.57
2018-11-06T21:57:55.743Z,10.67
2018-11-06T22:00:26.539Z,11.73
2018-11-06T22:02:56.437Z,10.70
2018-11-06T22:05:26.317Z,13.27
2018-11-06T22:07:56.391Z,12.10
2018-11-06T22:10:26.502Z,11.80
2018-11-06T22:12:56.535Z,16.93
2018-11-06T22:15:26.464Z,15.40
2018-11-06T22:17:56.417Z,17.13
2018-11-06T22:20:26.123Z,11.20
2018-11-06T22:22:57.047Z,14.50
2018-11-06T22:25:28.000Z,15.43
2018-11-06T22:27:57.492Z,14.30
2018-11-06T22:30:27.387Z,17.60
2018-11-06T22:32:58.401Z,16.47
2018-11-06T22:35:28.513Z,16.20
2018-11-06T22:37:58.417Z,14.90
2018-11-06T22:40:29.100Z,14.70
2018-11-06T22:42:59.861Z,16.03
2018-11-06T22:45:29.774Z,21.50
2018-11-06T22:47:59.559Z,17.37
2018-11-06T22:50:29.437Z,18.07
2018-11-06T22:52:59.501Z,20.67
2018-11-06T22:55:28.969Z,18.03
2018-11-06T22:57:58.428Z,21.60
2018-11-06T23:00:32.785Z,14.10
2018-11-06T23:03:02.340Z,13.60
2018-11-06T23:05:31.817Z,13.90
2018-11-06T23:08:06.121Z,12.43
2018-11-06T23:10:35.624Z,15.23
2018-11-06T23:13:05.288Z,16.90
2018-11-06T23:15:34.615Z,16.73
2018-11-06T23:18:03.911Z,13.20
2018-11-06T23:20:33.438Z,18.50
2018-11-06T23:23:02.816Z,16.63
2018-11-06T23:25:32.095Z,20.10
2018-11-06T23:28:01.475Z,14.63
2018-11-06T23:30:30.824Z,14.33
2018-11-06T23:33:00.412Z,22.77
2018-11-06T23:35:29.882Z,17.90
2018-11-06T23:37:59.157Z,17.53
2018-11-06T23:40:28.484Z,14.30
2018-11-06T23:42:57.870Z,15.60
2018-11-06T23:45:27.453Z,14.10
2018-11-06T23:47:57.088Z,15.80
2018-11-06T23:50:26.472Z,15.73
2018-11-06T23:52:55.729Z,15.50
2018-11-06T23:55:25.277Z,16.63
2018-11-06T23:57:54.622Z,15.23
